Roquetas de Mar, Spain
Current Conditions -  °F | °C
As of 4:00 PM on Tuesday 21 Oct 2014 (Local Time) from LEAM Reporting Station
Light Fog Light Fog  
Wind Chill: 68°   Ceiling: 100
Heat Index: 68°   Visibility: 1.2mi
Dew Point: 66°   Wind: 1mph
Humidity: 94%   Direction: NA
Pressure: 30.18"   Gusts: NA
Location:  36.76°N, 2.61°W
Report Text: LEAM 211400Z VRB01KT 2000 0700SW BCFG SCT000 BKN001 20/19 Q1022
Loading
Personal Weather Stations






























Interactive Weather Map
Tropical Storm Tracking
New forecast layout! Learn more

10-Day Weather Forecast

Advertisements
Track Severe Weather on mobile